sensor_id;sensor_type;location;lat;lon;timestamp;temperature;humidity
1405;DHT22;697;51.114;6.542;2023-08-30T00:01:26;18.90;91.50
1405;DHT22;697;51.114;6.542;2023-08-30T00:03:53;18.90;91.50
1405;DHT22;697;51.114;6.542;2023-08-30T00:06:20;18.90;91.50
1405;DHT22;697;51.114;6.542;2023-08-30T00:08:47;18.90;91.40
1405;DHT22;697;51.114;6.542;2023-08-30T00:11:14;18.80;91.40
1405;DHT22;697;51.114;6.542;2023-08-30T00:13:42;18.80;91.50
1405;DHT22;697;51.114;6.542;2023-08-30T00:16:08;18.80;91.40
1405;DHT22;697;51.114;6.542;2023-08-30T00:18:35;18.80;91.50
1405;DHT22;697;51.114;6.542;2023-08-30T00:21:02;18.80;91.50
1405;DHT22;697;51.114;6.542;2023-08-30T00:23:28;18.70;91.40
1405;DHT22;697;51.114;6.542;2023-08-30T00:25:55;18.70;91.40
1405;DHT22;697;51.114;6.542;2023-08-30T00:28:22;18.70;91.40
1405;DHT22;697;51.114;6.542;2023-08-30T00:30:54;18.70;91.40
1405;DHT22;697;51.114;6.542;2023-08-30T00:33:21;18.60;91.30
1405;DHT22;697;51.114;6.542;2023-08-30T00:35:55;18.60;91.30
1405;DHT22;697;51.114;6.542;2023-08-30T00:38:22;18.50;91.10
1405;DHT22;697;51.114;6.542;2023-08-30T00:40:49;18.50;91.60
1405;DHT22;697;51.114;6.542;2023-08-30T00:43:16;18.50;91.40
1405;DHT22;697;51.114;6.542;2023-08-30T00:45:42;18.50;91.30
1405;DHT22;697;51.114;6.542;2023-08-30T00:48:11;18.50;91.20
1405;DHT22;697;51.114;6.542;2023-08-30T00:50:38;18.40;91.10
1405;DHT22;697;51.114;6.542;2023-08-30T00:53:06;18.40;91.10
1405;DHT22;697;51.114;6.542;2023-08-30T00:55:33;18.40;91.00
1405;DHT22;697;51.114;6.542;2023-08-30T00:58:01;18.30;91.00
1405;DHT22;697;51.114;6.542;2023-08-30T01:00:28;18.30;91.00
1405;DHT22;697;51.114;6.542;2023-08-30T01:02:56;18.20;90.90
1405;DHT22;697;51.114;6.542;2023-08-30T01:05:24;18.10;90.90
1405;DHT22;697;51.114;6.542;2023-08-30T01:07:51;18.10;91.00
1405;DHT22;697;51.114;6.542;2023-08-30T01:10:18;18.10;91.10
1405;DHT22;697;51.114;6.542;2023-08-30T01:12:53;18.10;91.10
1405;DHT22;697;51.114;6.542;2023-08-30T01:15:23;18.00;91.10
1405;DHT22;697;51.114;6.542;2023-08-30T01:17:52;18.00;91.10
1405;DHT22;697;51.114;6.542;2023-08-30T01:20:21;18.00;91.00
1405;DHT22;697;51.114;6.542;2023-08-30T01:22:59;18.00;91.00
1405;DHT22;697;51.114;6.542;2023-08-30T01:25:42;17.90;91.00
1405;DHT22;697;51.114;6.542;2023-08-30T01:28:13;17.90;91.10
1405;DHT22;697;51.114;6.542;2023-08-30T01:30:42;17.90;91.00
1405;DHT22;697;51.114;6.542;2023-08-30T01:33:10;17.90;91.00
1405;DHT22;697;51.114;6.542;2023-08-30T01:35:39;17.90;91.30
1405;DHT22;697;51.114;6.542;2023-08-30T01:38:07;17.80;91.30
1405;DHT22;697;51.114;6.542;2023-08-30T01:40:36;17.70;91.30
1405;DHT22;697;51.114;6.542;2023-08-30T01:43:04;17.70;91.40
1405;DHT22;697;51.114;6.542;2023-08-30T01:45:35;17.70;91.50
1405;DHT22;697;51.114;6.542;2023-08-30T01:48:03;17.70;91.70
1405;DHT22;697;51.114;6.542;2023-08-30T01:50:31;17.60;91.80
1405;DHT22;697;51.114;6.542;2023-08-30T01:52:59;17.60;92.10
1405;DHT22;697;51.114;6.542;2023-08-30T01:55:28;17.60;92.20
1405;DHT22;697;51.114;6.542;2023-08-30T01:57:56;17.60;92.20
1405;DHT22;697;51.114;6.542;2023-08-30T02:00:23;17.70;92.20
1405;DHT22;697;51.114;6.542;2023-08-30T02:02:51;17.70;92.20
1405;DHT22;697;51.114;6.542;2023-08-30T02:05:17;17.70;92.10
1405;DHT22;697;51.114;6.542;2023-08-30T02:07:50;17.70;92.10
1405;DHT22;697;51.114;6.542;2023-08-30T02:10:25;17.70;92.20
1405;DHT22;697;51.114;6.542;2023-08-30T02:12:54;17.70;92.40
1405;DHT22;697;51.114;6.542;2023-08-30T02:15:24;17.70;92.40
1405;DHT22;697;51.114;6.542;2023-08-30T02:17:53;17.70;92.30
1405;DHT22;697;51.114;6.542;2023-08-30T02:20:21;17.60;92.40
1405;DHT22;697;51.114;6.542;2023-08-30T02:22:48;17.60;92.60
1405;DHT22;697;51.114;6.542;2023-08-30T02:25:15;17.60;92.70
1405;DHT22;697;51.114;6.542;2023-08-30T02:27:42;17.50;92.60
1405;DHT22;697;51.114;6.542;2023-08-30T02:30:09;17.50;92.60
1405;DHT22;697;51.114;6.542;2023-08-30T02:32:35;17.50;92.70
1405;DHT22;697;51.114;6.542;2023-08-30T02:35:04;17.50;92.70
1405;DHT22;697;51.114;6.542;2023-08-30T02:37:31;17.60;92.70
1405;DHT22;697;51.114;6.542;2023-08-30T02:39:58;17.60;92.60
1405;DHT22;697;51.114;6.542;2023-08-30T02:42:25;17.50;92.50
1405;DHT22;697;51.114;6.542;2023-08-30T02:44:52;17.50;92.50
1405;DHT22;697;51.114;6.542;2023-08-30T02:47:18;17.50;92.50
1405;DHT22;697;51.114;6.542;2023-08-30T02:49:45;17.40;92.40
1405;DHT22;697;51.114;6.542;2023-08-30T02:52:13;17.40;92.50
1405;DHT22;697;51.114;6.542;2023-08-30T02:54:40;17.40;92.50
1405;DHT22;697;51.114;6.542;2023-08-30T02:57:07;17.40;92.50
1405;DHT22;697;51.114;6.542;2023-08-30T02:59:34;17.30;92.40
1405;DHT22;697;51.114;6.542;2023-08-30T03:02:01;17.30;92.50
1405;DHT22;697;51.114;6.542;2023-08-30T03:04:28;17.30;92.40
1405;DHT22;697;51.114;6.542;2023-08-30T03:06:55;17.30;92.40
1405;DHT22;697;51.114;6.542;2023-08-30T03:09:23;17.30;92.30
1405;DHT22;697;51.114;6.542;2023-08-30T03:11:49;17.30;92.30
1405;DHT22;697;51.114;6.542;2023-08-30T03:14:16;17.20;92.20
1405;DHT22;697;51.114;6.542;2023-08-30T03:16:43;17.20;92.20
1405;DHT22;697;51.114;6.542;2023-08-30T03:19:10;17.20;92.20
1405;DHT22;697;51.114;6.542;2023-08-30T03:21:37;17.20;92.20
1405;DHT22;697;51.114;6.542;2023-08-30T03:24:04;17.20;92.10
1405;DHT22;697;51.114;6.542;2023-08-30T03:26:32;17.10;92.10
1405;DHT22;697;51.114;6.542;2023-08-30T03:28:59;17.10;92.10
1405;DHT22;697;51.114;6.542;2023-08-30T03:31:26;17.10;92.20
1405;DHT22;697;51.114;6.542;2023-08-30T03:33:52;17.00;92.10
1405;DHT22;697;51.114;6.542;2023-08-30T03:36:19;16.90;92.00
1405;DHT22;697;51.114;6.542;2023-08-30T03:38:46;17.00;92.20
1405;DHT22;697;51.114;6.542;2023-08-30T03:41:13;16.90;92.20
1405;DHT22;697;51.114;6.542;2023-08-30T03:43:41;16.90;92.30
1405;DHT22;697;51.114;6.542;2023-08-30T03:46:08;16.90;92.30
1405;DHT22;697;51.114;6.542;2023-08-30T03:48:37;16.90;92.30
1405;DHT22;697;51.114;6.542;2023-08-30T03:51:04;16.80;92.40
1405;DHT22;697;51.114;6.542;2023-08-30T03:53:30;16.80;92.60
1405;DHT22;697;51.114;6.542;2023-08-30T03:55:57;16.70;92.80
1405;DHT22;697;51.114;6.542;2023-08-30T03:58:25;16.70;93.10
1405;DHT22;697;51.114;6.542;2023-08-30T04:00:53;16.70;93.20
1405;DHT22;697;51.114;6.542;2023-08-30T04:03:19;16.70;93.50
1405;DHT22;697;51.114;6.542;2023-08-30T04:05:46;16.80;93.70
1405;DHT22;697;51.114;6.542;2023-08-30T04:08:13;16.80;93.70
1405;DHT22;697;51.114;6.542;2023-08-30T04:10:40;16.80;94.00
1405;DHT22;697;51.114;6.542;2023-08-30T04:13:08;16.80;94.20
1405;DHT22;697;51.114;6.542;2023-08-30T04:15:35;16.80;94.40
1405;DHT22;697;51.114;6.542;2023-08-30T04:18:04;16.90;94.70
1405;DHT22;697;51.114;6.542;2023-08-30T04:20:32;16.90;94.90
1405;DHT22;697;51.114;6.542;2023-08-30T04:22:59;16.80;95.30
1405;DHT22;697;51.114;6.542;2023-08-30T04:25:27;16.80;95.20
1405;DHT22;697;51.114;6.542;2023-08-30T04:27:54;16.80;95.30
1405;DHT22;697;51.114;6.542;2023-08-30T04:30:21;16.80;95.60
1405;DHT22;697;51.114;6.542;2023-08-30T04:32:47;16.80;95.70
1405;DHT22;697;51.114;6.542;2023-08-30T04:35:15;16.80;95.90
1405;DHT22;697;51.114;6.542;2023-08-30T04:37:42;16.80;95.90
1405;DHT22;697;51.114;6.542;2023-08-30T04:40:09;16.90;95.90
1405;DHT22;697;51.114;6.542;2023-08-30T04:42:37;16.90;95.90
1405;DHT22;697;51.114;6.542;2023-08-30T04:45:05;17.00;95.90
1405;DHT22;697;51.114;6.542;2023-08-30T04:47:32;16.90;95.80
1405;DHT22;697;51.114;6.542;2023-08-30T04:49:59;16.90;96.00
1405;DHT22;697;51.114;6.542;2023-08-30T04:52:28;17.00;96.40
1405;DHT22;697;51.114;6.542;2023-08-30T04:54:54;17.00;95.90
1405;DHT22;697;51.114;6.542;2023-08-30T04:57:21;16.90;95.90
1405;DHT22;697;51.114;6.542;2023-08-30T04:59:48;16.90;95.90
1405;DHT22;697;51.114;6.542;2023-08-30T05:02:14;16.90;96.00
1405;DHT22;697;51.114;6.542;2023-08-30T05:04:41;16.90;96.00
1405;DHT22;697;51.114;6.542;2023-08-30T05:07:08;16.90;96.40
1405;DHT22;697;51.114;6.542;2023-08-30T05:09:36;16.90;96.10
1405;DHT22;697;51.114;6.542;2023-08-30T05:12:03;16.90;96.10
1405;DHT22;697;51.114;6.542;2023-08-30T05:14:30;17.00;96.20
1405;DHT22;697;51.114;6.542;2023-08-30T05:16:56;17.00;96.20
1405;DHT22;697;51.114;6.542;2023-08-30T05:19:23;17.00;96.10
1405;DHT22;697;51.114;6.542;2023-08-30T05:21:50;17.10;96.00
1405;DHT22;697;51.114;6.542;2023-08-30T05:24:20;17.00;95.70
1405;DHT22;697;51.114;6.542;2023-08-30T05:26:48;17.10;95.70
1405;DHT22;697;51.114;6.542;2023-08-30T05:29:14;17.10;95.50
1405;DHT22;697;51.114;6.542;2023-08-30T05:31:41;17.10;95.20
1405;DHT22;697;51.114;6.542;2023-08-30T05:34:08;17.10;95.20
1405;DHT22;697;51.114;6.542;2023-08-30T05:36:35;17.20;95.20
1405;DHT22;697;51.114;6.542;2023-08-30T05:39:02;17.20;95.20
1405;DHT22;697;51.114;6.542;2023-08-30T05:41:29;17.20;95.10
1405;DHT22;697;51.114;6.542;2023-08-30T05:43:57;17.20;95.20
1405;DHT22;697;51.114;6.542;2023-08-30T05:46:24;17.10;95.10
1405;DHT22;697;51.114;6.542;2023-08-30T05:48:51;17.20;95.10
1405;DHT22;697;51.114;6.542;2023-08-30T05:51:17;17.20;95.00
1405;DHT22;697;51.114;6.542;2023-08-30T05:53:45;17.30;95.30
1405;DHT22;697;51.114;6.542;2023-08-30T05:56:12;17.30;94.70
1405;DHT22;697;51.114;6.542;2023-08-30T05:58:39;17.30;94.60
1405;DHT22;697;51.114;6.542;2023-08-30T06:01:07;17.30;94.50
1405;DHT22;697;51.114;6.542;2023-08-30T06:03:33;17.40;94.30
1405;DHT22;697;51.114;6.542;2023-08-30T06:06:00;17.50;94.10
1405;DHT22;697;51.114;6.542;2023-08-30T06:08:27;17.50;93.90
1405;DHT22;697;51.114;6.542;2023-08-30T06:10:54;17.50;93.70
1405;DHT22;697;51.114;6.542;2023-08-30T06:13:20;17.50;93.60
1405;DHT22;697;51.114;6.542;2023-08-30T06:15:50;17.50;93.60
1405;DHT22;697;51.114;6.542;2023-08-30T06:18:18;17.50;93.40
1405;DHT22;697;51.114;6.542;2023-08-30T06:20:45;17.50;93.50
1405;DHT22;697;51.114;6.542;2023-08-30T06:23:14;17.50;93.30
1405;DHT22;697;51.114;6.542;2023-08-30T06:25:41;17.60;93.50
1405;DHT22;697;51.114;6.542;2023-08-30T06:28:08;17.60;93.40
1405;DHT22;697;51.114;6.542;2023-08-30T06:30:35;17.60;93.40
1405;DHT22;697;51.114;6.542;2023-08-30T06:33:01;17.70;93.40
1405;DHT22;697;51.114;6.542;2023-08-30T06:35:30;17.70;93.60
1405;DHT22;697;51.114;6.542;2023-08-30T06:37:56;17.70;93.10
1405;DHT22;697;51.114;6.542;2023-08-30T06:40:23;17.70;93.00
1405;DHT22;697;51.114;6.542;2023-08-30T06:42:50;17.70;93.00
1405;DHT22;697;51.114;6.542;2023-08-30T06:45:17;17.70;93.10
1405;DHT22;697;51.114;6.542;2023-08-30T06:47:43;17.70;93.50
1405;DHT22;697;51.114;6.542;2023-08-30T06:50:10;17.80;92.90
1405;DHT22;697;51.114;6.542;2023-08-30T06:52:38;17.80;92.50
1405;DHT22;697;51.114;6.542;2023-08-30T06:55:05;17.80;92.60
1405;DHT22;697;51.114;6.542;2023-08-30T06:57:32;17.90;92.30
1405;DHT22;697;51.114;6.542;2023-08-30T06:59:59;18.00;92.00
1405;DHT22;697;51.114;6.542;2023-08-30T07:02:33;18.10;92.00
1405;DHT22;697;51.114;6.542;2023-08-30T07:04:59;18.20;92.00
1405;DHT22;697;51.114;6.542;2023-08-30T07:07:26;18.30;91.50
1405;DHT22;697;51.114;6.542;2023-08-30T07:09:55;18.40;91.30
1405;DHT22;697;51.114;6.542;2023-08-30T07:12:21;18.40;91.00
1405;DHT22;697;51.114;6.542;2023-08-30T07:14:48;18.60;90.80
1405;DHT22;697;51.114;6.542;2023-08-30T07:17:15;18.60;90.20
1405;DHT22;697;51.114;6.542;2023-08-30T07:19:42;18.60;90.20
1405;DHT22;697;51.114;6.542;2023-08-30T07:22:08;18.70;90.10
1405;DHT22;697;51.114;6.542;2023-08-30T07:24:35;18.80;90.10
1405;DHT22;697;51.114;6.542;2023-08-30T07:27:04;18.90;89.80
1405;DHT22;697;51.114;6.542;2023-08-30T07:29:31;19.00;89.30
1405;DHT22;697;51.114;6.542;2023-08-30T07:31:58;19.00;89.00
1405;DHT22;697;51.114;6.542;2023-08-30T07:34:25;19.20;88.60
1405;DHT22;697;51.114;6.542;2023-08-30T07:36:54;19.30;88.30
1405;DHT22;697;51.114;6.542;2023-08-30T07:39:21;19.50;88.20
1405;DHT22;697;51.114;6.542;2023-08-30T07:41:48;19.70;87.50
1405;DHT22;697;51.114;6.542;2023-08-30T07:44:16;19.90;85.90
1405;DHT22;697;51.114;6.542;2023-08-30T07:46:42;20.00;82.80
1405;DHT22;697;51.114;6.542;2023-08-30T07:49:09;20.10;80.50
1405;DHT22;697;51.114;6.542;2023-08-30T07:51:36;20.10;80.00
1405;DHT22;697;51.114;6.542;2023-08-30T07:54:03;20.10;80.90
1405;DHT22;697;51.114;6.542;2023-08-30T07:56:30;20.00;79.10
1405;DHT22;697;51.114;6.542;2023-08-30T07:58:56;19.90;79.70
1405;DHT22;697;51.114;6.542;2023-08-30T08:01:24;19.90;79.90
1405;DHT22;697;51.114;6.542;2023-08-30T08:03:51;20.00;80.80
1405;DHT22;697;51.114;6.542;2023-08-30T08:06:18;20.10;81.50
1405;DHT22;697;51.114;6.542;2023-08-30T08:08:44;20.40;79.10
1405;DHT22;697;51.114;6.542;2023-08-30T08:11:11;20.70;77.30
1405;DHT22;697;51.114;6.542;2023-08-30T08:13:38;21.00;77.30
1405;DHT22;697;51.114;6.542;2023-08-30T08:16:04;21.20;75.20
1405;DHT22;697;51.114;6.542;2023-08-30T08:18:32;21.30;73.00
1405;DHT22;697;51.114;6.542;2023-08-30T08:20:59;21.50;72.50
1405;DHT22;697;51.114;6.542;2023-08-30T08:23:26;21.50;72.00
1405;DHT22;697;51.114;6.542;2023-08-30T08:25:57;21.70;71.60
1405;DHT22;697;51.114;6.542;2023-08-30T08:28:24;21.80;70.90
1405;DHT22;697;51.114;6.542;2023-08-30T08:30:50;21.80;70.00
1405;DHT22;697;51.114;6.542;2023-08-30T08:33:17;21.80;72.00
1405;DHT22;697;51.114;6.542;2023-08-30T08:35:45;21.70;70.20
1405;DHT22;697;51.114;6.542;2023-08-30T08:38:14;21.20;73.60
1405;DHT22;697;51.114;6.542;2023-08-30T08:40:40;21.00;78.50
1405;DHT22;697;51.114;6.542;2023-08-30T08:43:09;20.80;79.90
1405;DHT22;697;51.114;6.542;2023-08-30T08:45:36;20.60;79.90
1405;DHT22;697;51.114;6.542;2023-08-30T08:48:04;20.50;82.50
1405;DHT22;697;51.114;6.542;2023-08-30T08:50:32;20.50;82.90
1405;DHT22;697;51.114;6.542;2023-08-30T08:53:02;20.50;81.40
1405;DHT22;697;51.114;6.542;2023-08-30T08:55:29;20.50;81.60
1405;DHT22;697;51.114;6.542;2023-08-30T08:57:57;20.60;81.50
1405;DHT22;697;51.114;6.542;2023-08-30T09:00:25;20.70;81.00
1405;DHT22;697;51.114;6.542;2023-08-30T09:02:53;20.80;79.40
1405;DHT22;697;51.114;6.542;2023-08-30T09:05:19;20.70;78.90
1405;DHT22;697;51.114;6.542;2023-08-30T09:07:47;20.80;79.10
1405;DHT22;697;51.114;6.542;2023-08-30T09:10:15;20.90;77.90
1405;DHT22;697;51.114;6.542;2023-08-30T09:12:42;20.90;79.30
1405;DHT22;697;51.114;6.542;2023-08-30T09:15:09;20.80;77.90
1405;DHT22;697;51.114;6.542;2023-08-30T09:17:36;20.80;77.00
1405;DHT22;697;51.114;6.542;2023-08-30T09:20:07;20.70;76.60
1405;DHT22;697;51.114;6.542;2023-08-30T09:22:38;20.60;75.30
1405;DHT22;697;51.114;6.542;2023-08-30T09:25:07;20.70;77.00
1405;DHT22;697;51.114;6.542;2023-08-30T09:27:36;20.80;77.10
1405;DHT22;697;51.114;6.542;2023-08-30T09:30:04;20.90;76.30
1405;DHT22;697;51.114;6.542;2023-08-30T09:32:38;20.90;75.70
1405;DHT22;697;51.114;6.542;2023-08-30T09:35:06;21.00;76.20
1405;DHT22;697;51.114;6.542;2023-08-30T09:37:32;21.00;75.20
1405;DHT22;697;51.114;6.542;2023-08-30T09:39:59;21.00;75.90
1405;DHT22;697;51.114;6.542;2023-08-30T09:42:26;20.90;77.10
1405;DHT22;697;51.114;6.542;2023-08-30T09:44:56;20.80;75.30
1405;DHT22;697;51.114;6.542;2023-08-30T09:47:24;20.80;76.50
1405;DHT22;697;51.114;6.542;2023-08-30T09:49:51;20.70;76.00
1405;DHT22;697;51.114;6.542;2023-08-30T09:52:23;20.60;76.60
1405;DHT22;697;51.114;6.542;2023-08-30T09:54:51;20.60;78.30
1405;DHT22;697;51.114;6.542;2023-08-30T09:57:18;20.50;77.60
1405;DHT22;697;51.114;6.542;2023-08-30T09:59:47;20.60;77.20
1405;DHT22;697;51.114;6.542;2023-08-30T10:02:16;20.60;76.90
1405;DHT22;697;51.114;6.542;2023-08-30T10:04:45;20.60;76.90
1405;DHT22;697;51.114;6.542;2023-08-30T10:07:12;20.50;77.30
1405;DHT22;697;51.114;6.542;2023-08-30T10:09:40;20.30;78.30
1405;DHT22;697;51.114;6.542;2023-08-30T10:12:07;20.20;78.00
1405;DHT22;697;51.114;6.542;2023-08-30T10:14:34;20.20;77.10
1405;DHT22;697;51.114;6.542;2023-08-30T10:17:02;19.90;77.70
1405;DHT22;697;51.114;6.542;2023-08-30T10:19:32;19.80;79.70
1405;DHT22;697;51.114;6.542;2023-08-30T10:22:01;19.60;80.00
1405;DHT22;697;51.114;6.542;2023-08-30T10:24:31;19.50;81.30
1405;DHT22;697;51.114;6.542;2023-08-30T10:27:01;19.10;89.50
1405;DHT22;697;51.114;6.542;2023-08-30T10:29:30;18.80;91.90
1405;DHT22;697;51.114;6.542;2023-08-30T10:32:02;18.50;93.40
1405;DHT22;697;51.114;6.542;2023-08-30T10:34:33;18.30;94.50
1405;DHT22;697;51.114;6.542;2023-08-30T10:37:02;18.30;95.50
1405;DHT22;697;51.114;6.542;2023-08-30T10:39:36;18.10;95.70
1405;DHT22;697;51.114;6.542;2023-08-30T10:42:08;18.10;96.40
1405;DHT22;697;51.114;6.542;2023-08-30T10:44:45;18.00;96.60
1405;DHT22;697;51.114;6.542;2023-08-30T10:47:18;17.90;97.10
1405;DHT22;697;51.114;6.542;2023-08-30T10:49:47;17.90;97.60
1405;DHT22;697;51.114;6.542;2023-08-30T10:52:15;17.80;97.80
1405;DHT22;697;51.114;6.542;2023-08-30T10:54:41;17.80;98.20
1405;DHT22;697;51.114;6.542;2023-08-30T10:57:13;17.90;98.50
1405;DHT22;697;51.114;6.542;2023-08-30T10:59:40;18.00;98.70
1405;DHT22;697;51.114;6.542;2023-08-30T11:02:07;18.00;98.40
1405;DHT22;697;51.114;6.542;2023-08-30T11:04:39;18.20;98.70
1405;DHT22;697;51.114;6.542;2023-08-30T11:07:08;18.40;98.40
1405;DHT22;697;51.114;6.542;2023-08-30T11:09:37;18.40;97.90
1405;DHT22;697;51.114;6.542;2023-08-30T11:12:06;18.50;97.80
1405;DHT22;697;51.114;6.542;2023-08-30T11:14:33;18.50;97.50
1405;DHT22;697;51.114;6.542;2023-08-30T11:16:59;18.50;97.30
1405;DHT22;697;51.114;6.542;2023-08-30T11:19:29;18.50;97.30
1405;DHT22;697;51.114;6.542;2023-08-30T11:21:56;18.50;97.60
1405;DHT22;697;51.114;6.542;2023-08-30T11:24:24;18.60;98.20
1405;DHT22;697;51.114;6.542;2023-08-30T11:26:53;18.50;97.50
1405;DHT22;697;51.114;6.542;2023-08-30T11:29:19;18.50;97.90
1405;DHT22;697;51.114;6.542;2023-08-30T11:31:46;18.50;98.40
1405;DHT22;697;51.114;6.542;2023-08-30T11:34:13;18.50;98.30
1405;DHT22;697;51.114;6.542;2023-08-30T11:36:39;18.50;98.70
1405;DHT22;697;51.114;6.542;2023-08-30T11:39:07;18.50;98.50
1405;DHT22;697;51.114;6.542;2023-08-30T11:41:37;18.50;98.10
1405;DHT22;697;51.114;6.542;2023-08-30T11:44:05;18.40;98.00
1405;DHT22;697;51.114;6.542;2023-08-30T11:46:31;18.40;98.50
1405;DHT22;697;51.114;6.542;2023-08-30T11:48:58;18.40;98.70
1405;DHT22;697;51.114;6.542;2023-08-30T11:51:25;18.40;98.90
1405;DHT22;697;51.114;6.542;2023-08-30T11:53:52;18.40;99.00
1405;DHT22;697;51.114;6.542;2023-08-30T11:56:19;18.40;99.10
1405;DHT22;697;51.114;6.542;2023-08-30T11:58:47;18.40;99.30
1405;DHT22;697;51.114;6.542;2023-08-30T12:01:14;18.40;99.80
1405;DHT22;697;51.114;6.542;2023-08-30T12:03:41;18.40;99.60
1405;DHT22;697;51.114;6.542;2023-08-30T12:06:11;18.30;99.60
1405;DHT22;697;51.114;6.542;2023-08-30T12:08:38;18.10;99.70
1405;DHT22;697;51.114;6.542;2023-08-30T12:11:05;18.00;99.90
1405;DHT22;697;51.114;6.542;2023-08-30T12:13:33;18.10;99.90
1405;DHT22;697;51.114;6.542;2023-08-30T12:16:02;18.30;99.90
1405;DHT22;697;51.114;6.542;2023-08-30T12:18:32;18.50;99.90
1405;DHT22;697;51.114;6.542;2023-08-30T12:20:59;18.60;99.80
1405;DHT22;697;51.114;6.542;2023-08-30T12:23:27;18.70;99.10
1405;DHT22;697;51.114;6.542;2023-08-30T12:25:58;18.70;99.00
1405;DHT22;697;51.114;6.542;2023-08-30T12:28:25;18.60;99.10
1405;DHT22;697;51.114;6.542;2023-08-30T12:30:51;18.60;99.40
1405;DHT22;697;51.114;6.542;2023-08-30T12:33:21;18.50;99.20
1405;DHT22;697;51.114;6.542;2023-08-30T12:35:48;18.40;99.20
1405;DHT22;697;51.114;6.542;2023-08-30T12:38:14;18.40;99.10
1405;DHT22;697;51.114;6.542;2023-08-30T12:40:44;18.40;99.60
1405;DHT22;697;51.114;6.542;2023-08-30T12:43:11;18.30;99.40
1405;DHT22;697;51.114;6.542;2023-08-30T12:45:38;18.30;99.20
1405;DHT22;697;51.114;6.542;2023-08-30T12:48:08;18.30;99.70
1405;DHT22;697;51.114;6.542;2023-08-30T12:50:37;18.40;99.90
1405;DHT22;697;51.114;6.542;2023-08-30T12:53:05;18.50;99.90
1405;DHT22;697;51.114;6.542;2023-08-30T12:55:32;18.60;99.40
1405;DHT22;697;51.114;6.542;2023-08-30T12:58:00;18.80;99.40
1405;DHT22;697;51.114;6.542;2023-08-30T13:00:28;18.90;99.00
1405;DHT22;697;51.114;6.542;2023-08-30T13:02:54;19.20;99.10
1405;DHT22;697;51.114;6.542;2023-08-30T13:05:21;19.40;98.80
1405;DHT22;697;51.114;6.542;2023-08-30T13:07:49;19.60;98.10
1405;DHT22;697;51.114;6.542;2023-08-30T13:10:16;19.70;97.80
1405;DHT22;697;51.114;6.542;2023-08-30T13:12:43;19.60;97.30
1405;DHT22;697;51.114;6.542;2023-08-30T13:15:10;19.50;97.30
1405;DHT22;697;51.114;6.542;2023-08-30T13:17:37;19.50;97.20
1405;DHT22;697;51.114;6.542;2023-08-30T13:20:05;19.40;97.30
1405;DHT22;697;51.114;6.542;2023-08-30T13:22:32;19.30;97.80
1405;DHT22;697;51.114;6.542;2023-08-30T13:25:00;19.40;96.80
1405;DHT22;697;51.114;6.542;2023-08-30T13:27:27;19.30;97.30
1405;DHT22;697;51.114;6.542;2023-08-30T13:29:54;19.20;97.20
1405;DHT22;697;51.114;6.542;2023-08-30T13:32:20;19.10;97.20
1405;DHT22;697;51.114;6.542;2023-08-30T13:34:47;19.10;97.70
1405;DHT22;697;51.114;6.542;2023-08-30T13:37:14;19.00;97.70
1405;DHT22;697;51.114;6.542;2023-08-30T13:39:41;19.00;98.20
1405;DHT22;697;51.114;6.542;2023-08-30T13:42:09;19.00;98.60
1405;DHT22;697;51.114;6.542;2023-08-30T13:44:36;19.00;98.60
1405;DHT22;697;51.114;6.542;2023-08-30T13:47:03;19.10;99.00
1405;DHT22;697;51.114;6.542;2023-08-30T13:49:30;19.10;98.80
1405;DHT22;697;51.114;6.542;2023-08-30T13:51:57;19.20;98.50
1405;DHT22;697;51.114;6.542;2023-08-30T13:54:24;19.20;97.80
1405;DHT22;697;51.114;6.542;2023-08-30T13:56:50;19.20;96.40
1405;DHT22;697;51.114;6.542;2023-08-30T13:59:18;19.20;96.60
1405;DHT22;697;51.114;6.542;2023-08-30T14:01:46;19.20;96.70
1405;DHT22;697;51.114;6.542;2023-08-30T14:04:13;19.20;96.60
1405;DHT22;697;51.114;6.542;2023-08-30T14:06:40;19.10;97.00
1405;DHT22;697;51.114;6.542;2023-08-30T14:09:06;19.10;97.10
1405;DHT22;697;51.114;6.542;2023-08-30T14:11:33;19.10;97.60
1405;DHT22;697;51.114;6.542;2023-08-30T14:14:01;19.10;97.70
1405;DHT22;697;51.114;6.542;2023-08-30T14:16:29;19.10;98.00
1405;DHT22;697;51.114;6.542;2023-08-30T14:18:56;19.10;97.70
1405;DHT22;697;51.114;6.542;2023-08-30T14:21:25;19.00;97.50
1405;DHT22;697;51.114;6.542;2023-08-30T14:23:52;18.90;96.90
1405;DHT22;697;51.114;6.542;2023-08-30T14:26:18;18.70;97.50
1405;DHT22;697;51.114;6.542;2023-08-30T14:28:45;18.60;97.90
1405;DHT22;697;51.114;6.542;2023-08-30T14:31:12;18.40;97.60
1405;DHT22;697;51.114;6.542;2023-08-30T14:33:42;18.30;97.70
1405;DHT22;697;51.114;6.542;2023-08-30T14:36:10;18.20;98.90
1405;DHT22;697;51.114;6.542;2023-08-30T14:38:37;18.00;98.60
1405;DHT22;697;51.114;6.542;2023-08-30T14:41:04;18.00;98.50
1405;DHT22;697;51.114;6.542;2023-08-30T14:43:32;18.00;98.80
1405;DHT22;697;51.114;6.542;2023-08-30T14:45:59;18.10;98.80
1405;DHT22;697;51.114;6.542;2023-08-30T14:48:26;18.40;98.60
1405;DHT22;697;51.114;6.542;2023-08-30T14:50:54;18.80;98.40
1405;DHT22;697;51.114;6.542;2023-08-30T14:53:21;19.80;99.00
1405;DHT22;697;51.114;6.542;2023-08-30T14:55:47;21.10;96.00
1405;DHT22;697;51.114;6.542;2023-08-30T14:58:14;21.90;91.80
1405;DHT22;697;51.114;6.542;2023-08-30T15:00:41;22.70;88.50
1405;DHT22;697;51.114;6.542;2023-08-30T15:03:08;23.70;82.00
1405;DHT22;697;51.114;6.542;2023-08-30T15:05:34;25.00;79.50
1405;DHT22;697;51.114;6.542;2023-08-30T15:08:03;26.20;72.20
1405;DHT22;697;51.114;6.542;2023-08-30T15:10:29;27.30;64.60
1405;DHT22;697;51.114;6.542;2023-08-30T15:12:56;28.30;58.80
1405;DHT22;697;51.114;6.542;2023-08-30T15:15:23;29.00;56.80
1405;DHT22;697;51.114;6.542;2023-08-30T15:17:50;29.70;54.40
1405;DHT22;697;51.114;6.542;2023-08-30T15:20:16;30.40;51.40
1405;DHT22;697;51.114;6.542;2023-08-30T15:22:43;30.80;50.40
1405;DHT22;697;51.114;6.542;2023-08-30T15:25:11;31.20;49.20
1405;DHT22;697;51.114;6.542;2023-08-30T15:27:38;31.60;46.70
1405;DHT22;697;51.114;6.542;2023-08-30T15:30:06;31.70;44.90
1405;DHT22;697;51.114;6.542;2023-08-30T15:32:33;31.90;44.90
1405;DHT22;697;51.114;6.542;2023-08-30T15:34:59;31.90;43.20
1405;DHT22;697;51.114;6.542;2023-08-30T15:37:26;31.50;43.50
1405;DHT22;697;51.114;6.542;2023-08-30T15:39:58;30.90;44.00
1405;DHT22;697;51.114;6.542;2023-08-30T15:42:30;30.10;45.00
1405;DHT22;697;51.114;6.542;2023-08-30T15:44:57;29.40;47.00
1405;DHT22;697;51.114;6.542;2023-08-30T15:47:23;28.30;48.60
1405;DHT22;697;51.114;6.542;2023-08-30T15:49:50;27.10;51.00
1405;DHT22;697;51.114;6.542;2023-08-30T15:52:17;26.20;53.30
1405;DHT22;697;51.114;6.542;2023-08-30T15:54:43;25.70;54.50
1405;DHT22;697;51.114;6.542;2023-08-30T15:57:10;25.80;56.40
1405;DHT22;697;51.114;6.542;2023-08-30T15:59:38;26.00;56.00
1405;DHT22;697;51.114;6.542;2023-08-30T16:02:05;26.50;55.10
1405;DHT22;697;51.114;6.542;2023-08-30T16:04:32;26.70;53.30
1405;DHT22;697;51.114;6.542;2023-08-30T16:06:58;26.80;53.50
1405;DHT22;697;51.114;6.542;2023-08-30T16:09:25;27.00;53.60
1405;DHT22;697;51.114;6.542;2023-08-30T16:11:52;27.10;52.10
1405;DHT22;697;51.114;6.542;2023-08-30T16:14:18;27.30;53.00
1405;DHT22;697;51.114;6.542;2023-08-30T16:16:46;27.40;52.20
1405;DHT22;697;51.114;6.542;2023-08-30T16:19:13;27.10;51.30